createdAt,value
2023-04-01T00:01:00.250Z,98642.00
2023-04-01T00:03:28.262Z,98644.00
2023-04-01T00:05:56.732Z,98644.00
2023-04-01T00:08:23.898Z,98644.00
2023-04-01T00:10:50.704Z,98643.00
2023-04-01T00:13:17.334Z,98645.00
2023-04-01T00:15:44.145Z,98631.00
2023-04-01T00:18:10.969Z,98638.00
2023-04-01T00:20:37.861Z,98634.00
2023-04-01T00:23:05.555Z,98635.00
2023-04-01T00:25:32.590Z,98637.00
2023-04-01T00:27:59.339Z,98639.00
2023-04-01T00:30:25.853Z,98640.00
2023-04-01T00:32:53.927Z,98637.00
2023-04-01T00:35:20.662Z,98635.00
2023-04-01T00:37:48.268Z,98637.00
2023-04-01T00:40:36.087Z,98633.00
2023-04-01T00:43:04.220Z,98637.00
2023-04-01T00:45:42.396Z,98638.00
2023-04-01T00:48:16.362Z,98635.00
2023-04-01T00:50:46.790Z,98636.00
2023-04-01T00:53:13.738Z,98639.00
2023-04-01T00:55:43.766Z,98619.00
2023-04-01T00:58:15.421Z,98634.00
2023-04-01T01:00:42.785Z,98638.00
2023-04-01T01:03:09.390Z,98640.00
2023-04-01T01:05:53.974Z,98641.00
2023-04-01T01:08:33.491Z,98623.00
2023-04-01T01:11:00.487Z,98643.00
2023-04-01T01:13:51.886Z,98641.00
2023-04-01T01:16:28.383Z,98643.00
2023-04-01T01:19:08.755Z,98648.00
2023-04-01T01:22:00.000Z,98641.00
2023-04-01T01:25:03.553Z,98641.00
2023-04-01T01:27:30.423Z,98643.00
2023-04-01T01:30:26.644Z,98648.00
2023-04-01T01:33:08.460Z,98644.00
2023-04-01T01:35:53.408Z,98638.00
2023-04-01T01:38:24.341Z,98632.00
2023-04-01T01:40:59.908Z,98644.00
2023-04-01T01:43:31.423Z,98652.00
2023-04-01T01:46:02.872Z,98636.00
2023-04-01T01:48:30.582Z,98650.00
2023-04-01T01:50:57.501Z,98651.00
2023-04-01T01:53:24.065Z,98653.00
2023-04-01T01:55:50.692Z,98653.00
2023-04-01T01:58:22.610Z,98646.00
2023-04-01T02:00:56.851Z,98660.00
2023-04-01T02:03:25.854Z,98655.00
2023-04-01T02:05:54.463Z,98656.00
2023-04-01T02:08:29.067Z,98644.00
2023-04-01T02:10:59.336Z,98661.00
2023-04-01T02:13:36.929Z,98656.00
2023-04-01T02:16:08.438Z,98655.00
2023-04-01T02:18:36.427Z,98652.00
2023-04-01T02:21:03.743Z,98656.00
2023-04-01T02:23:30.676Z,98652.00
2023-04-01T02:25:57.247Z,98652.00
2023-04-01T02:28:24.387Z,98654.00
2023-04-01T02:30:51.361Z,98662.00
2023-04-01T02:33:18.183Z,98656.00
2023-04-01T02:35:44.823Z,98656.00
2023-04-01T02:38:11.470Z,98652.00
2023-04-01T02:40:50.463Z,98665.00
2023-04-01T02:43:17.338Z,98667.00
2023-04-01T02:45:44.528Z,98669.00
2023-04-01T02:48:11.271Z,98669.00
2023-04-01T02:50:37.807Z,98672.00
2023-04-01T02:53:04.856Z,98675.00
2023-04-01T02:55:32.085Z,98673.00
2023-04-01T02:57:59.697Z,98666.00
2023-04-01T03:00:27.687Z,98676.00
2023-04-01T03:02:54.488Z,98677.00
2023-04-01T03:05:21.150Z,98670.00
2023-04-01T03:07:48.002Z,98661.00
2023-04-01T03:10:15.405Z,98667.00
2023-04-01T03:12:42.098Z,98680.00
2023-04-01T03:15:11.772Z,98676.00
2023-04-01T03:17:40.367Z,98677.00
2023-04-01T03:20:09.289Z,98661.00
2023-04-01T03:22:36.329Z,98666.00
2023-04-01T03:25:05.332Z,98673.00
2023-04-01T03:27:32.405Z,98685.00
2023-04-01T03:29:59.039Z,98682.00
2023-04-01T03:32:28.223Z,98688.00
2023-04-01T03:34:54.752Z,98682.00
2023-04-01T03:37:21.436Z,98696.00
2023-04-01T03:39:47.976Z,98684.00
2023-04-01T03:42:14.611Z,98690.00
2023-04-01T03:44:41.186Z,98703.00
2023-04-01T03:47:10.615Z,98690.00
2023-04-01T03:49:37.316Z,98692.00
2023-04-01T03:52:04.176Z,98707.00
2023-04-01T03:54:30.908Z,98705.00
2023-04-01T03:56:58.929Z,98713.00
2023-04-01T03:59:25.709Z,98715.00
2023-04-01T04:01:52.333Z,98709.00
2023-04-01T04:04:19.028Z,98710.00
2023-04-01T04:06:45.924Z,98715.00
2023-04-01T04:09:12.664Z,98721.00
2023-04-01T04:11:39.172Z,98721.00
2023-04-01T04:14:05.758Z,98707.00
2023-04-01T04:16:32.598Z,98709.00
2023-04-01T04:19:02.480Z,98722.00
2023-04-01T04:21:29.096Z,98723.00
2023-04-01T04:23:56.007Z,98724.00
2023-04-01T04:26:22.754Z,98727.00
2023-04-01T04:29:00.806Z,98725.00
2023-04-01T04:31:28.023Z,98733.00
2023-04-01T04:33:57.482Z,98728.00
2023-04-01T04:36:24.202Z,98728.00
2023-04-01T04:38:52.164Z,98735.00
2023-04-01T04:41:20.488Z,98730.00
2023-04-01T04:43:54.604Z,98737.00
2023-04-01T04:46:22.958Z,98738.00
2023-04-01T04:48:53.874Z,98741.00
2023-04-01T04:51:23.549Z,98739.00
2023-04-01T04:53:51.502Z,98751.00
2023-04-01T04:56:22.422Z,98745.00
2023-04-01T04:59:04.481Z,98745.00
2023-04-01T05:01:41.381Z,98742.00
2023-04-01T05:04:07.930Z,98750.00
2023-04-01T05:06:34.594Z,98734.00
2023-04-01T05:09:02.356Z,98745.00
2023-04-01T05:11:28.888Z,98745.00
2023-04-01T05:13:55.943Z,98748.00
2023-04-01T05:16:22.784Z,98757.00
2023-04-01T05:18:49.508Z,98761.00
2023-04-01T05:21:16.418Z,98753.00
2023-04-01T05:23:43.323Z,98742.00
2023-04-01T05:26:12.733Z,98759.00
2023-04-01T05:28:39.873Z,98762.00
2023-04-01T05:31:07.190Z,98760.00
2023-04-01T05:33:41.658Z,98771.00
2023-04-01T05:36:13.788Z,98765.00
2023-04-01T05:38:41.076Z,98753.00
2023-04-01T05:41:10.697Z,98771.00
2023-04-01T05:43:41.968Z,98777.00
2023-04-01T05:46:27.403Z,98766.00
2023-04-01T05:48:59.643Z,98774.00
2023-04-01T05:51:26.982Z,98778.00
2023-04-01T05:53:53.563Z,98779.00
2023-04-01T05:56:20.300Z,98779.00
2023-04-01T05:58:54.951Z,98791.00
2023-04-01T06:01:23.848Z,98783.00
2023-04-01T06:03:50.789Z,98788.00
2023-04-01T06:06:25.296Z,98793.00
2023-04-01T06:08:53.992Z,98785.00
2023-04-01T06:12:00.985Z,98800.00
2023-04-01T06:14:42.803Z,98788.00
2023-04-01T06:17:32.633Z,98801.00
2023-04-01T06:20:18.351Z,98808.00
2023-04-01T06:22:48.027Z,98814.00
2023-04-01T06:25:41.261Z,98812.00
2023-04-01T06:28:29.907Z,98808.00
2023-04-01T06:31:21.729Z,98819.00
2023-04-01T06:34:07.527Z,98814.00
2023-04-01T06:37:09.378Z,98811.00
2023-04-01T06:39:57.438Z,98828.00
2023-04-01T06:42:43.719Z,98813.00
2023-04-01T06:46:00.737Z,98823.00
2023-04-01T06:49:23.602Z,98826.00
2023-04-01T06:52:24.147Z,98821.00
2023-04-01T06:55:15.339Z,98823.00
2023-04-01T06:58:26.437Z,98816.00
2023-04-01T07:00:57.609Z,98826.00
2023-04-01T07:03:33.868Z,98820.00
2023-04-01T07:06:14.866Z,98821.00
2023-04-01T07:08:50.779Z,98831.00
2023-04-01T07:11:27.840Z,98838.00
2023-04-01T07:14:18.460Z,98831.00
2023-04-01T07:16:50.268Z,98829.00
2023-04-01T07:19:25.851Z,98833.00
2023-04-01T07:22:23.922Z,98836.00
2023-04-01T07:25:28.962Z,98842.00
2023-04-01T07:28:17.377Z,98844.00
2023-04-01T07:31:09.389Z,98845.00
2023-04-01T07:33:58.024Z,98849.00
2023-04-01T07:36:35.227Z,98854.00
2023-04-01T07:39:10.235Z,98858.00
2023-04-01T07:42:00.632Z,98845.00
2023-04-01T07:44:47.931Z,98857.00
2023-04-01T07:47:29.591Z,98855.00
2023-04-01T07:50:22.998Z,98855.00
2023-04-01T07:53:18.714Z,98852.00
2023-04-01T07:55:59.635Z,98850.00
2023-04-01T07:58:47.970Z,98855.00
2023-04-01T08:01:48.252Z,98859.00
2023-04-01T08:04:22.717Z,98867.00
2023-04-01T08:07:00.750Z,98873.00
2023-04-01T08:09:36.667Z,98870.00
2023-04-01T08:12:59.021Z,98869.00
2023-04-01T08:16:04.605Z,98877.00
2023-04-01T08:19:07.503Z,98883.00
2023-04-01T08:21:48.547Z,98864.00
2023-04-01T08:24:26.218Z,98877.00
2023-04-01T08:26:57.668Z,98876.00
2023-04-01T08:29:41.364Z,98879.00
2023-04-01T08:32:12.320Z,98890.00
2023-04-01T08:34:42.332Z,98884.00
2023-04-01T08:37:23.107Z,98893.00
2023-04-01T08:40:14.930Z,98893.00
2023-04-01T08:42:50.734Z,98895.00
2023-04-01T08:45:37.821Z,98889.00
2023-04-01T08:48:32.521Z,98901.00
2023-04-01T08:51:28.502Z,98912.00
2023-04-01T08:54:17.189Z,98905.00
2023-04-01T08:56:53.658Z,98906.00
2023-04-01T08:59:41.442Z,98915.00
2023-04-01T09:03:07.259Z,98915.00
2023-04-01T09:06:12.178Z,98915.00
2023-04-01T09:09:18.546Z,98914.00
2023-04-01T09:11:54.403Z,98923.00
2023-04-01T09:14:27.288Z,98920.00
2023-04-01T09:17:39.362Z,98928.00
2023-04-01T09:20:40.745Z,98924.00
2023-04-01T09:23:25.399Z,98929.00
2023-04-01T09:26:13.608Z,98931.00
2023-04-01T09:29:33.572Z,98934.00
2023-04-01T09:32:22.096Z,98937.00
2023-04-01T09:35:37.442Z,98944.00
2023-04-01T09:38:09.908Z,98949.00
2023-04-01T09:41:11.034Z,98948.00
2023-04-01T09:44:14.903Z,98947.00
2023-04-01T09:47:32.717Z,98960.00
2023-04-01T09:50:06.412Z,98964.00
2023-04-01T09:52:44.212Z,98966.00
2023-04-01T09:55:21.626Z,98962.00
2023-04-01T09:58:13.478Z,98969.00
2023-04-01T10:01:35.759Z,98976.00
2023-04-01T10:04:52.215Z,98977.00
2023-04-01T10:07:55.460Z,98979.00
2023-04-01T10:11:00.522Z,98982.00
2023-04-01T10:13:45.659Z,98984.00
2023-04-01T10:16:39.017Z,98988.00
2023-04-01T10:19:46.484Z,98991.00
2023-04-01T10:22:49.256Z,98991.00
2023-04-01T10:25:20.907Z,98993.00
2023-04-01T10:28:07.877Z,98995.00
2023-04-01T10:31:15.533Z,98993.00
2023-04-01T10:34:16.149Z,99000.00
2023-04-01T10:36:52.165Z,98993.00
2023-04-01T10:39:36.458Z,98994.00
2023-04-01T10:42:38.505Z,99000.00
2023-04-01T10:45:46.556Z,98996.00
2023-04-01T10:48:31.416Z,99004.00
2023-04-01T10:50:57.904Z,98999.00
2023-04-01T10:53:40.158Z,99006.00
2023-04-01T10:56:49.263Z,99002.00
2023-04-01T11:00:11.932Z,99008.00
2023-04-01T11:02:58.452Z,99001.00
2023-04-01T11:06:15.709Z,99004.00
2023-04-01T11:08:49.735Z,99017.00
2023-04-01T11:11:58.918Z,99011.00
2023-04-01T11:14:50.215Z,99015.00
2023-04-01T11:17:24.574Z,99017.00
2023-04-01T11:20:03.646Z,99028.00
2023-04-01T11:23:01.751Z,99032.00
2023-04-01T11:25:50.165Z,99023.00
2023-04-01T11:28:58.538Z,99028.00
2023-04-01T11:31:46.865Z,99034.00
2023-04-01T11:34:42.443Z,99038.00
2023-04-01T11:37:21.726Z,99052.00
2023-04-01T11:40:36.315Z,99042.00
2023-04-01T11:44:07.296Z,99042.00
2023-04-01T11:47:02.524Z,99060.00
2023-04-01T11:49:53.922Z,99058.00
2023-04-01T11:52:36.680Z,99059.00
2023-04-01T11:55:22.587Z,99050.00
2023-04-01T11:58:18.584Z,99067.00
2023-04-01T12:01:07.343Z,99079.00
2023-04-01T12:04:00.901Z,99074.00
2023-04-01T12:06:44.797Z,99076.00
2023-04-01T12:09:22.203Z,99059.00
2023-04-01T12:12:07.564Z,99085.00
2023-04-01T12:14:44.437Z,99089.00
2023-04-01T12:17:29.027Z,99087.00
2023-04-01T12:20:30.780Z,99082.00
2023-04-01T12:23:08.311Z,99089.00
2023-04-01T12:25:59.684Z,99098.00
2023-04-01T12:28:53.790Z,99103.00
2023-04-01T12:31:27.193Z,99106.00
2023-04-01T12:34:00.130Z,99109.00
2023-04-01T12:36:41.949Z,99115.00
2023-04-01T12:39:50.725Z,99108.00
2023-04-01T12:42:25.246Z,99109.00
2023-04-01T12:44:51.875Z,99126.00
2023-04-01T12:47:53.913Z,99130.00
2023-04-01T12:50:35.764Z,99131.00
2023-04-01T12:53:40.530Z,99129.00
2023-04-01T12:56:37.160Z,99130.00
2023-04-01T12:59:24.660Z,99142.00
2023-04-01T13:02:20.433Z,99140.00
2023-04-01T13:04:47.019Z,99145.00
2023-04-01T13:07:19.243Z,99144.00
2023-04-01T13:09:57.884Z,99149.00
2023-04-01T13:12:52.096Z,99152.00
2023-04-01T13:15:38.620Z,99158.00
2023-04-01T13:18:29.433Z,99160.00
2023-04-01T13:21:07.376Z,99165.00
2023-04-01T13:23:49.955Z,99164.00
2023-04-01T13:26:16.467Z,99164.00
2023-04-01T13:29:00.493Z,99176.00
2023-04-01T13:31:53.086Z,99174.00
2023-04-01T13:34:31.528Z,99167.00
2023-04-01T13:37:16.116Z,99179.00
2023-04-01T13:39:45.855Z,99180.00
2023-04-01T13:42:20.394Z,99182.00
2023-04-01T13:44:58.484Z,99192.00
2023-04-01T13:47:46.758Z,99193.00
2023-04-01T13:50:19.432Z,99190.00
2023-04-01T13:53:01.224Z,99185.00
2023-04-01T13:55:46.622Z,99196.00
2023-04-01T13:58:22.324Z,99200.00
2023-04-01T14:00:55.143Z,99200.00
2023-04-01T14:03:46.534Z,99201.00
2023-04-01T14:06:16.078Z,99203.00
2023-04-01T14:08:45.658Z,99205.00
2023-04-01T14:11:53.367Z,99208.00
2023-04-01T14:14:33.597Z,99206.00
2023-04-01T14:17:22.475Z,99215.00
2023-04-01T14:20:19.691Z,99218.00
2023-04-01T14:23:15.013Z,99221.00
2023-04-01T14:26:18.850Z,99235.00
2023-04-01T14:29:10.643Z,99232.00
2023-04-01T14:31:43.283Z,99236.00
2023-04-01T14:34:12.571Z,99233.00
2023-04-01T14:36:54.339Z,99234.00
2023-04-01T14:39:51.548Z,99244.00
2023-04-01T14:42:39.076Z,99244.00
2023-04-01T14:45:41.804Z,99250.00
2023-04-01T14:48:33.315Z,99255.00
2023-04-01T14:51:38.245Z,99248.00
2023-04-01T14:54:12.741Z,99260.00
2023-04-01T14:56:44.555Z,99258.00
2023-04-01T14:59:16.541Z,99271.00
2023-04-01T15:02:00.911Z,99269.00
2023-04-01T15:04:48.251Z,99267.00
2023-04-01T15:07:42.824Z,99283.00
2023-04-01T15:10:47.136Z,99284.00
2023-04-01T15:13:16.081Z,99289.00
2023-04-01T15:15:48.526Z,99290.00
2023-04-01T15:18:26.401Z,99289.00
2023-04-01T15:21:17.137Z,99289.00
2023-04-01T15:24:08.956Z,99298.00
2023-04-01T15:27:04.237Z,99305.00
2023-04-01T15:30:02.407Z,99310.00
2023-04-01T15:32:32.203Z,99313.00
2023-04-01T15:35:14.292Z,99309.00
2023-04-01T15:37:55.424Z,99314.00
2023-04-01T15:40:31.732Z,99317.00
2023-04-01T15:43:31.505Z,99319.00
2023-04-01T15:46:21.459Z,99323.00
2023-04-01T15:49:06.119Z,99340.00
2023-04-01T15:51:56.232Z,99333.00
2023-04-01T15:54:43.794Z,99341.00
2023-04-01T15:57:30.341Z,99351.00
2023-04-01T16:00:15.118Z,99348.00
2023-04-01T16:02:49.660Z,99350.00
2023-04-01T16:05:19.194Z,99353.00
2023-04-01T16:07:48.709Z,99360.00
2023-04-01T16:10:33.055Z,99358.00
2023-04-01T16:13:21.255Z,99364.00
2023-04-01T16:16:16.247Z,99369.00
2023-04-01T16:19:27.587Z,99376.00
2023-04-01T16:22:07.817Z,99364.00
2023-04-01T16:24:35.989Z,99387.00
2023-04-01T16:27:22.729Z,99390.00
2023-04-01T16:29:58.244Z,99399.00
2023-04-01T16:32:39.739Z,99398.00
2023-04-01T16:35:24.640Z,99405.00
2023-04-01T16:37:55.265Z,99399.00
2023-04-01T16:40:43.576Z,99399.00
2023-04-01T16:43:10.052Z,99417.00
2023-04-01T16:45:40.544Z,99426.00
2023-04-01T16:48:13.780Z,99431.00
2023-04-01T16:50:52.315Z,99414.00
2023-04-01T16:53:26.528Z,99426.00
2023-04-01T16:56:02.494Z,99440.00
2023-04-01T16:58:37.106Z,99439.00
2023-04-01T17:01:23.992Z,99452.00
2023-04-01T17:03:54.813Z,99454.00
2023-04-01T17:06:46.686Z,99460.00
2023-04-01T17:09:19.483Z,99455.00
2023-04-01T17:12:21.805Z,99469.00
2023-04-01T17:15:26.073Z,99478.00
2023-04-01T17:18:23.198Z,99488.00
2023-04-01T17:21:14.144Z,99488.00
2023-04-01T17:23:52.173Z,99483.00
2023-04-01T17:26:25.974Z,99506.00
2023-04-01T17:28:59.698Z,99497.00
2023-04-01T17:31:35.495Z,99508.00
2023-04-01T17:34:17.399Z,99512.00
2023-04-01T17:36:53.641Z,99512.00
2023-04-01T17:39:23.034Z,99518.00
2023-04-01T17:42:19.372Z,99530.00
2023-04-01T17:45:06.342Z,99529.00
2023-04-01T17:47:47.808Z,99540.00
2023-04-01T17:50:23.290Z,99537.00
2023-04-01T17:53:15.681Z,99548.00
2023-04-01T17:56:04.138Z,99546.00
2023-04-01T17:58:41.454Z,99547.00
2023-04-01T18:01:25.881Z,99562.00
2023-04-01T18:04:18.655Z,99555.00
2023-04-01T18:07:00.624Z,99564.00
2023-04-01T18:09:40.882Z,99567.00
2023-04-01T18:12:16.913Z,99583.00
2023-04-01T18:15:09.162Z,99581.00
2023-04-01T18:17:46.166Z,99578.00
2023-04-01T18:20:32.892Z,99595.00
2023-04-01T18:23:03.622Z,99597.00
2023-04-01T18:25:37.684Z,99600.00
2023-04-01T18:28:32.076Z,99620.00
2023-04-01T18:31:06.835Z,99620.00
2023-04-01T18:33:57.532Z,99618.00
2023-04-01T18:36:45.980Z,99624.00
2023-04-01T18:39:29.493Z,99628.00
2023-04-01T18:42:06.879Z,99626.00
2023-04-01T18:44:57.164Z,99645.00
2023-04-01T18:47:45.222Z,99662.00
2023-04-01T18:50:59.462Z,99663.00
2023-04-01T18:53:51.034Z,99650.00
2023-04-01T18:56:35.803Z,99664.00
2023-04-01T18:59:04.961Z,99672.00
2023-04-01T19:01:42.918Z,99680.00
2023-04-01T19:04:21.097Z,99683.00
2023-04-01T19:06:57.745Z,99689.00
2023-04-01T19:09:45.666Z,99690.00
2023-04-01T19:12:35.907Z,99685.00
2023-04-01T19:15:24.033Z,99692.00
2023-04-01T19:17:59.609Z,99686.00
2023-04-01T19:20:32.464Z,99693.00
2023-04-01T19:23:21.171Z,99696.00
2023-04-01T19:25:52.514Z,99687.00
2023-04-01T19:28:27.434Z,99701.00
2023-04-01T19:30:59.595Z,99707.00
2023-04-01T19:33:44.691Z,99708.00
2023-04-01T19:36:17.568Z,99718.00
2023-04-01T19:38:51.518Z,99720.00
2023-04-01T19:41:40.609Z,99727.00
2023-04-01T19:44:31.617Z,99741.00
2023-04-01T19:47:20.944Z,99740.00
2023-04-01T19:49:47.676Z,99746.00
2023-04-01T19:52:35.905Z,99752.00
2023-04-01T19:55:35.425Z,99756.00
2023-04-01T19:58:26.260Z,99765.00
2023-04-01T20:01:01.455Z,99768.00
2023-04-01T20:03:52.888Z,99763.00
2023-04-01T20:06:53.411Z,99779.00
2023-04-01T20:09:37.976Z,99780.00
2023-04-01T20:12:30.522Z,99774.00
2023-04-01T20:15:04.751Z,99787.00
2023-04-01T20:17:43.227Z,99795.00
2023-04-01T20:20:09.799Z,99805.00
2023-04-01T20:22:48.325Z,99805.00
2023-04-01T20:25:42.360Z,99806.00
2023-04-01T20:28:20.927Z,99833.00
2023-04-01T20:30:50.846Z,99831.00
2023-04-01T20:33:32.250Z,99830.00
2023-04-01T20:36:16.590Z,99839.00
2023-04-01T20:39:04.566Z,99835.00
2023-04-01T20:41:51.402Z,99834.00
2023-04-01T20:44:21.051Z,99845.00
2023-04-01T20:47:25.391Z,99834.00
2023-04-01T20:50:27.440Z,99851.00
2023-04-01T20:53:03.426Z,99841.00
2023-04-01T20:55:51.056Z,99863.00
2023-04-01T20:58:37.344Z,99854.00
2023-04-01T21:01:22.467Z,99857.00
2023-04-01T21:04:15.673Z,99878.00
2023-04-01T21:07:10.409Z,99882.00
2023-04-01T21:09:40.057Z,99881.00
2023-04-01T21:12:20.928Z,99868.00
2023-04-01T21:15:21.497Z,99886.00
2023-04-01T21:18:15.963Z,99888.00
2023-04-01T21:21:11.158Z,99901.00
2023-04-01T21:23:50.584Z,99901.00
2023-04-01T21:26:31.122Z,99910.00
2023-04-01T21:29:07.908Z,99910.00
2023-04-01T21:32:08.006Z,99923.00
2023-04-01T21:34:53.607Z,99921.00
2023-04-01T21:37:41.884Z,99919.00
2023-04-01T21:40:25.838Z,99914.00
2023-04-01T21:43:04.427Z,99936.00
2023-04-01T21:45:43.291Z,99929.00
2023-04-01T21:48:30.938Z,99939.00
2023-04-01T21:51:26.826Z,99939.00
2023-04-01T21:54:21.207Z,99937.00
2023-04-01T21:57:06.121Z,99943.00
2023-04-01T21:59:38.497Z,99955.00
2023-04-01T22:02:55.167Z,99955.00
2023-04-01T22:05:37.815Z,99959.00
2023-04-01T22:08:33.586Z,99963.00
2023-04-01T22:11:18.218Z,99960.00
2023-04-01T22:13:51.048Z,99960.00
2023-04-01T22:16:22.956Z,99970.00
2023-04-01T22:19:01.593Z,99976.00
2023-04-01T22:21:30.923Z,99976.00
2023-04-01T22:24:15.693Z,99978.00
2023-04-01T22:26:59.298Z,99987.00
2023-04-01T22:29:32.976Z,99983.00
2023-04-01T22:32:08.113Z,99988.00
2023-04-01T22:34:51.134Z,99987.00
2023-04-01T22:37:20.648Z,99995.00
2023-04-01T22:40:01.901Z,99984.00
2023-04-01T22:42:37.224Z,100004.00
2023-04-01T22:45:11.819Z,100010.00
2023-04-01T22:48:04.266Z,100000.00
2023-04-01T22:50:37.832Z,100012.00
2023-04-01T22:53:15.562Z,100012.00
2023-04-01T22:55:52.691Z,100027.00
2023-04-01T22:58:28.174Z,100024.00
2023-04-01T23:01:05.696Z,100029.00
2023-04-01T23:03:34.119Z,100038.00
2023-04-01T23:06:03.151Z,100024.00
2023-04-01T23:09:06.357Z,100037.00
2023-04-01T23:11:44.769Z,100040.00
2023-04-01T23:14:29.691Z,100045.00
2023-04-01T23:17:21.290Z,100048.00
2023-04-01T23:19:56.280Z,100054.00
2023-04-01T23:22:33.045Z,100051.00
2023-04-01T23:25:34.496Z,100052.00
2023-04-01T23:28:25.835Z,100067.00
2023-04-01T23:30:53.000Z,100075.00
2023-04-01T23:33:19.608Z,100067.00
2023-04-01T23:35:49.899Z,100068.00
2023-04-01T23:38:17.389Z,100077.00
2023-04-01T23:40:44.068Z,100094.00
2023-04-01T23:43:27.316Z,100087.00
2023-04-01T23:45:56.162Z,100097.00
2023-04-01T23:48:31.746Z,100093.00
2023-04-01T23:50:59.151Z,100099.00
2023-04-01T23:53:29.830Z,100116.00
2023-04-01T23:55:57.139Z,100103.00
2023-04-01T23:58:28.454Z,100116.00
